Time;durP1;ratioP1;P1;durP2;ratioP2;P2;SDS_P1;SDS_P2;PMS_P1;PMS_P2;Temp;Humidity;BMP_temperature;BMP_pressure;BME280_temperature;BME280_humidity;BME280_pressure;Samples;Min_cycle;Max_cycle;Signal;HPM_P1;HPM_P2
2022/05/11 00:01:47;;;;;;;11.57;1.75;;;14.00;95.20;;;;;;4988647;28;20025;-70
2022/05/11 00:04:15;;;;;;;11.65;2.15;;;14.00;95.20;;;;;;4989075;28;20037;-69
2022/05/11 00:06:41;;;;;;;12.05;2.00;;;14.00;95.20;;;;;;5014751;28;20026;-71
2022/05/11 00:09:08;;;;;;;10.13;1.63;;;14.00;95.50;;;;;;5006525;28;20018;-68
2022/05/11 00:11:36;;;;;;;10.60;1.90;;;14.00;95.30;;;;;;5005924;28;20190;-70
2022/05/11 00:14:02;;;;;;;11.95;1.90;;;14.00;95.30;;;;;;5006008;28;20049;-69
2022/05/11 00:16:29;;;;;;;8.95;1.63;;;14.00;95.40;;;;;;5005855;28;20053;-69
2022/05/11 00:18:55;;;;;;;12.15;2.03;;;14.00;95.50;;;;;;5003145;28;20253;-70
2022/05/11 00:21:22;;;;;;;13.85;2.58;;;14.00;95.50;;;;;;5005998;28;20026;-70
2022/05/11 00:23:48;;;;;;;9.68;1.85;;;14.00;95.60;;;;;;5005793;28;20049;-69
2022/05/11 00:26:15;;;;;;;14.98;2.05;;;14.00;95.60;;;;;;5004853;28;20081;-69
2022/05/11 00:28:41;;;;;;;14.48;2.00;;;13.90;95.80;;;;;;5005438;28;20034;-69
2022/05/11 00:31:06;;;;;;;12.38;1.65;;;13.90;95.90;;;;;;5005805;28;20048;-69
2022/05/11 00:33:32;;;;;;;13.32;2.45;;;14.00;95.90;;;;;;5004528;28;20090;-69
2022/05/11 00:35:58;;;;;;;14.32;2.10;;;14.00;96.00;;;;;;5005678;28;20096;-70
2022/05/11 00:38:26;;;;;;;16.67;2.30;;;13.90;96.00;;;;;;5004570;28;20072;-69
2022/05/11 00:40:55;;;;;;;14.27;2.05;;;14.00;96.00;;;;;;5004545;28;20222;-68
2022/05/11 00:43:35;;;;;;;16.23;2.45;;;14.00;96.00;;;;;;5004321;28;20045;-68
2022/05/11 00:46:36;;;;;;;15.32;2.47;;;14.00;96.00;;;;;;5005684;28;20085;-70
2022/05/11 00:52:00;;;;;;;12.30;2.15;;;14.00;96.00;;;;;;5010768;28;20029;-71
2022/05/11 00:54:29;;;;;;;11.60;2.00;;;14.00;96.00;;;;;;5007440;28;20089;-70
2022/05/11 00:57:00;;;;;;;15.45;2.13;;;14.00;96.10;;;;;;5024344;28;20050;-70
2022/05/11 00:59:31;;;;;;;13.23;1.77;;;13.90;96.30;;;;;;5004244;28;20027;-69
2022/05/11 01:02:03;;;;;;;10.35;1.83;;;13.90;96.30;;;;;;5004081;28;20328;-70
2022/05/11 01:04:33;;;;;;;10.57;2.13;;;13.90;96.40;;;;;;5003915;28;20069;-69
2022/05/11 01:07:01;;;;;;;13.07;1.90;;;13.80;96.50;;;;;;5031142;28;20218;-69
2022/05/11 01:09:27;;;;;;;12.77;2.15;;;13.80;96.80;;;;;;5023505;28;20255;-70
2022/05/11 01:11:57;;;;;;;13.63;1.90;;;13.80;96.80;;;;;;5023139;28;20018;-69
2022/05/11 01:14:28;;;;;;;12.50;1.95;;;13.90;97.10;;;;;;5006880;28;20034;-69
2022/05/11 01:16:55;;;;;;;14.88;2.05;;;13.80;96.80;;;;;;5023209;28;20132;-69
2022/05/11 01:19:27;;;;;;;12.23;2.10;;;13.80;96.90;;;;;;5005385;28;20033;-69
2022/05/11 01:22:02;;;;;;;11.50;2.15;;;13.80;97.00;;;;;;5007041;28;20030;-69
2022/05/11 01:24:33;;;;;;;10.32;1.83;;;13.80;97.10;;;;;;5024813;28;20017;-70
2022/05/11 01:27:40;;;;;;;12.98;2.20;;;13.80;97.20;;;;;;5022883;28;20256;-69
2022/05/11 01:30:21;;;;;;;16.17;2.03;;;13.70;97.30;;;;;;5009361;28;20029;-69
2022/05/11 01:32:52;;;;;;;11.40;2.15;;;13.80;97.40;;;;;;5008471;28;20045;-69
2022/05/11 01:35:38;;;;;;;10.73;1.70;;;13.70;97.40;;;;;;5022755;28;20037;-70
2022/05/11 01:38:43;;;;;;;10.60;2.15;;;13.70;97.50;;;;;;5023164;28;20056;-69
2022/05/11 01:41:15;;;;;;;19.70;2.13;;;13.70;97.80;;;;;;5009037;28;20018;-69
2022/05/11 01:43:41;;;;;;;13.80;2.22;;;13.70;97.90;;;;;;5022890;28;20017;-70
2022/05/11 01:46:07;;;;;;;14.38;2.72;;;13.70;98.00;;;;;;5022713;28;20037;-70
2022/05/11 01:48:34;;;;;;;12.48;2.30;;;13.70;98.10;;;;;;5024071;28;20024;-70
2022/05/11 01:51:00;;;;;;;10.32;1.92;;;13.70;98.10;;;;;;5023719;28;20316;-70
2022/05/11 01:53:26;;;;;;;13.63;2.25;;;13.70;98.30;;;;;;5022634;28;20033;-70
2022/05/11 01:55:52;;;;;;;14.00;2.30;;;13.80;98.20;;;;;;5023652;28;20045;-70
2022/05/11 01:58:19;;;;;;;15.10;2.30;;;13.80;98.40;;;;;;5002920;28;20018;-70
2022/05/11 02:00:47;;;;;;;10.35;2.35;;;13.80;98.30;;;;;;5002785;28;20101;-70
2022/05/11 02:03:15;;;;;;;12.32;2.00;;;13.90;98.10;;;;;;5002360;28;20205;-69
2022/05/11 02:08:27;;;;;;;10.93;1.88;;;13.90;98.30;;;;;;5022895;28;20021;-69
2022/05/11 02:10:53;;;;;;;15.27;1.88;;;13.90;98.30;;;;;;5022441;28;20025;-70
2022/05/11 02:13:19;;;;;;;10.70;2.33;;;13.90;98.30;;;;;;5022257;28;20072;-69
2022/05/11 02:15:45;;;;;;;21.27;2.15;;;13.80;98.80;;;;;;5022607;28;20069;-69
2022/05/11 02:18:10;;;;;;;13.93;2.10;;;13.80;99.10;;;;;;5022255;28;20030;-69
2022/05/11 02:20:36;;;;;;;12.82;2.58;;;13.70;99.20;;;;;;5021076;28;20033;-69
2022/05/11 02:23:03;;;;;;;11.55;1.98;;;13.70;99.40;;;;;;5023283;28;20324;-70
2022/05/11 02:25:28;;;;;;;15.85;2.72;;;13.70;99.70;;;;;;5006046;28;20026;-70
2022/05/11 02:27:54;;;;;;;7.38;2.10;;;13.60;99.80;;;;;;5023353;28;20021;-69
2022/05/11 02:30:24;;;;;;;11.30;2.35;;;13.60;99.90;;;;;;5022039;28;20305;-69
2022/05/11 02:32:50;;;;;;;13.98;2.53;;;13.50;99.90;;;;;;5006303;28;20192;-70
2022/05/11 02:35:17;;;;;;;16.17;2.05;;;13.50;99.90;;;;;;5005720;28;20021;-70
2022/05/11 02:37:56;;;;;;;12.20;2.03;;;13.50;99.90;;;;;;5022481;28;20018;-69
2022/05/11 02:40:25;;;;;;;15.25;2.80;;;13.50;99.90;;;;;;5022206;28;20061;-70
2022/05/11 02:42:52;;;;;;;15.00;2.13;;;13.50;99.90;;;;;;5022386;28;20029;-70
2022/05/11 02:45:18;;;;;;;14.77;2.00;;;13.50;99.90;;;;;;5023211;28;20033;-71
2022/05/11 02:47:45;;;;;;;16.13;2.67;;;13.40;99.90;;;;;;5022233;28;20194;-70
2022/05/11 02:50:16;;;;;;;14.48;2.30;;;13.30;99.90;;;;;;5023306;28;20022;-69
2022/05/11 02:52:42;;;;;;;12.93;2.45;;;13.30;99.90;;;;;;5022366;28;20136;-69
2022/05/11 02:55:08;;;;;;;14.73;3.03;;;13.20;99.90;;;;;;5022721;28;20280;-70
2022/05/11 02:57:34;;;;;;;16.52;2.33;;;13.20;99.90;;;;;;5021935;28;20038;-70
2022/05/11 03:00:00;;;;;;;12.50;2.35;;;13.20;99.90;;;;;;5021881;28;20045;-69
2022/05/11 03:02:26;;;;;;;13.30;1.95;;;13.20;99.90;;;;;;5022121;28;20025;-69
2022/05/11 03:04:53;;;;;;;12.27;3.10;;;13.20;99.90;;;;;;5022100;28;20076;-70
2022/05/11 03:07:18;;;;;;;11.07;2.30;;;13.20;99.90;;;;;;5021785;28;20032;-69
2022/05/11 03:09:44;;;;;;;13.80;2.70;;;13.20;99.90;;;;;;5023557;28;20081;-70
2022/05/11 03:12:11;;;;;;;16.80;2.63;;;13.10;99.90;;;;;;5021982;28;20026;-69
2022/05/11 03:14:39;;;;;;;19.50;2.95;;;13.10;99.90;;;;;;5022993;28;20214;-70
2022/05/11 03:17:05;;;;;;;10.30;1.92;;;13.10;99.90;;;;;;5024387;28;20053;-69
2022/05/11 03:19:30;;;;;;;12.88;3.50;;;13.00;99.90;;;;;;5008473;28;20033;-70
2022/05/11 03:21:57;;;;;;;17.33;2.88;;;13.00;99.90;;;;;;5023600;28;20313;-69
2022/05/11 03:24:23;;;;;;;12.85;2.20;;;13.00;99.90;;;;;;5026553;28;20026;-70
2022/05/11 03:26:49;;;;;;;13.00;2.30;;;13.10;99.90;;;;;;5027035;28;20026;-69
2022/05/11 03:29:15;;;;;;;15.05;2.47;;;13.20;99.90;;;;;;5026307;28;20028;-69
2022/05/11 03:34:36;;;;;;;17.35;2.90;;;13.30;99.90;;;;;;5025683;28;20080;-70
2022/05/11 03:34:41;;;;;;;12.52;2.80;;;13.30;99.90;;;;;;5025466;28;20018;-69
2022/05/11 03:37:10;;;;;;;17.75;2.72;;;13.30;99.90;;;;;;5025184;28;20448;-70
2022/05/11 03:39:36;;;;;;;12.73;2.20;;;13.20;99.90;;;;;;5008948;28;20327;-70
2022/05/11 03:42:04;;;;;;;16.55;2.88;;;13.10;99.90;;;;;;5024977;28;20045;-69
2022/05/11 03:44:30;;;;;;;13.60;2.45;;;13.00;99.90;;;;;;5025232;28;20026;-70
2022/05/11 03:46:55;;;;;;;12.32;2.50;;;13.00;99.90;;;;;;5024911;28;20093;-69
2022/05/11 03:49:21;;;;;;;16.60;2.88;;;12.90;99.90;;;;;;5026205;28;20293;-69
2022/05/11 03:51:48;;;;;;;12.40;2.10;;;12.90;99.90;;;;;;5026127;28;20220;-70
2022/05/11 03:54:14;;;;;;;14.35;2.70;;;13.00;99.90;;;;;;5023155;28;20220;-69
2022/05/11 03:56:40;;;;;;;15.77;2.58;;;13.00;99.90;;;;;;5024413;28;20046;-70
2022/05/11 03:59:05;;;;;;;17.15;2.50;;;13.00;99.90;;;;;;5025643;28;20033;-69
2022/05/11 04:01:31;;;;;;;18.52;3.05;;;13.00;99.90;;;;;;5026050;28;20025;-69
2022/05/11 04:03:57;;;;;;;15.20;3.10;;;12.90;99.90;;;;;;5025878;28;20059;-70
2022/05/11 04:06:23;;;;;;;12.75;2.28;;;13.00;99.90;;;;;;5035812;28;20037;-69
2022/05/11 04:08:48;;;;;;;9.88;2.08;;;13.00;99.90;;;;;;5025667;28;20049;-69
2022/05/11 04:11:14;;;;;;;15.55;2.40;;;13.00;99.90;;;;;;5008436;28;20045;-69
2022/05/11 04:13:40;;;;;;;14.45;3.03;;;13.00;99.90;;;;;;5024645;28;20021;-70
2022/05/11 04:16:07;;;;;;;14.40;2.28;;;13.10;99.90;;;;;;5008210;28;20229;-70
2022/05/11 04:18:34;;;;;;;12.90;2.45;;;13.10;99.90;;;;;;5024334;28;20026;-70
2022/05/11 04:21:00;;;;;;;14.13;2.25;;;13.10;99.90;;;;;;5022375;28;20018;-70
2022/05/11 04:23:26;;;;;;;17.13;2.58;;;13.00;99.90;;;;;;5025624;28;20026;-69
2022/05/11 04:25:52;;;;;;;16.50;4.53;;;13.00;99.90;;;;;;5007644;28;20028;-69
2022/05/11 04:28:18;;;;;;;13.80;2.60;;;12.90;99.90;;;;;;5024712;28;20052;-69
2022/05/11 04:30:44;;;;;;;14.15;2.60;;;13.00;99.90;;;;;;5023630;28;20261;-70
2022/05/11 04:33:09;;;;;;;11.50;2.28;;;13.00;99.90;;;;;;5025381;28;20033;-70
2022/05/11 04:35:36;;;;;;;16.95;3.03;;;13.00;99.90;;;;;;5023784;28;20276;-69
2022/05/11 04:38:04;;;;;;;17.92;2.58;;;13.10;99.90;;;;;;5024404;28;20042;-70
2022/05/11 04:40:30;;;;;;;19.92;2.60;;;13.10;99.90;;;;;;5007148;28;20024;-70
2022/05/11 04:42:57;;;;;;;12.70;2.78;;;13.10;99.90;;;;;;5023813;28;20025;-70
2022/05/11 04:45:23;;;;;;;13.55;2.38;;;13.00;99.90;;;;;;5025326;28;20034;-70
2022/05/11 04:47:48;;;;;;;17.73;3.13;;;13.00;99.90;;;;;;5007468;28;20030;-70
2022/05/11 04:50:16;;;;;;;14.00;2.92;;;13.00;99.90;;;;;;5025197;28;20087;-70
2022/05/11 04:52:42;;;;;;;15.10;2.40;;;13.00;99.90;;;;;;5023778;28;20068;-69
2022/05/11 04:55:10;;;;;;;15.15;2.38;;;13.00;99.90;;;;;;5007001;28;20105;-70
2022/05/11 04:57:36;;;;;;;12.32;2.50;;;13.10;99.90;;;;;;5023515;28;20030;-70
2022/05/11 05:00:10;;;;;;;12.32;2.13;;;13.20;99.90;;;;;;5023410;28;20026;-70
2022/05/11 05:02:36;;;;;;;15.15;3.00;;;13.20;99.90;;;;;;5039946;28;20080;-70
2022/05/11 05:05:05;;;;;;;17.98;2.88;;;13.10;99.90;;;;;;5009005;28;20022;-70
2022/05/11 05:07:34;;;;;;;14.13;2.70;;;13.20;99.90;;;;;;5031180;28;20026;-70
2022/05/11 05:10:01;;;;;;;21.38;2.88;;;13.10;99.90;;;;;;5023176;28;20068;-69
2022/05/11 05:12:27;;;;;;;16.02;2.60;;;13.10;99.90;;;;;;5023650;28;20053;-70
2022/05/11 05:14:53;;;;;;;11.45;2.78;;;13.10;99.90;;;;;;5006967;28;20221;-70
2022/05/11 05:17:18;;;;;;;16.40;2.50;;;13.20;99.90;;;;;;5022604;28;20305;-70
2022/05/11 05:19:46;;;;;;;14.98;2.58;;;13.20;99.90;;;;;;5022887;28;20045;-69
2022/05/11 05:22:12;;;;;;;18.73;2.45;;;13.10;99.90;;;;;;5005552;28;20048;-69
2022/05/11 05:24:38;;;;;;;18.35;2.50;;;13.10;99.90;;;;;;5006603;28;20312;-69
2022/05/11 05:27:04;;;;;;;12.68;2.30;;;13.10;99.90;;;;;;5024060;28;20070;-70
2022/05/11 05:32:16;;;;;;;15.57;2.00;;;13.10;99.90;;;;;;5009848;28;20033;-70
2022/05/11 05:34:44;;;;;;;16.00;2.33;;;13.20;99.90;;;;;;5006356;28;20022;-70
2022/05/11 05:37:11;;;;;;;19.63;2.50;;;13.10;99.90;;;;;;5022870;28;20029;-69
2022/05/11 05:39:36;;;;;;;16.33;2.72;;;13.20;99.90;;;;;;5023837;28;20343;-69
2022/05/11 05:42:04;;;;;;;17.60;2.53;;;13.10;99.90;;;;;;5023333;28;20117;-69
2022/05/11 05:44:32;;;;;;;12.18;2.20;;;13.10;99.90;;;;;;5022700;28;20024;-70
2022/05/11 05:47:13;;;;;;;13.27;3.15;;;12.90;99.90;;;;;;5022210;28;20018;-70
2022/05/11 05:49:39;;;;;;;14.93;2.92;;;13.00;99.90;;;;;;5022292;28;20182;-70
2022/05/11 05:52:07;;;;;;;13.27;2.17;;;13.00;99.90;;;;;;5022455;28;20025;-69
2022/05/11 05:54:35;;;;;;;14.98;2.72;;;13.00;99.90;;;;;;5022065;28;20313;-71
2022/05/11 05:57:01;;;;;;;24.10;3.85;;;13.10;99.90;;;;;;5022103;28;20056;-71
2022/05/11 05:59:27;;;;;;;13.50;3.00;;;13.00;99.90;;;;;;5023347;28;20030;-70
2022/05/11 06:01:53;;;;;;;21.05;3.45;;;13.00;99.90;;;;;;5022452;28;20029;-69
2022/05/11 06:04:18;;;;;;;28.08;3.80;;;13.00;99.90;;;;;;4989805;28;20308;-69
2022/05/11 06:06:44;;;;;;;19.60;3.50;;;13.00;99.90;;;;;;5022040;28;20025;-69
2022/05/11 06:09:10;;;;;;;20.15;3.67;;;13.00;99.90;;;;;;5022708;28;20029;-69
2022/05/11 06:11:37;;;;;;;19.33;4.15;;;13.10;99.90;;;;;;5022022;28;20049;-70
2022/05/11 06:14:04;;;;;;;14.13;3.42;;;13.10;99.90;;;;;;5006081;28;20028;-70
2022/05/11 06:16:31;;;;;;;10.55;2.38;;;13.10;99.90;;;;;;5023408;28;20364;-70
2022/05/11 06:18:57;;;;;;;22.67;4.00;;;13.20;99.90;;;;;;5006379;28;20030;-70
2022/05/11 06:21:23;;;;;;;22.73;3.78;;;13.20;99.90;;;;;;5020744;28;20040;-70
2022/05/11 06:23:50;;;;;;;21.75;4.18;;;13.10;99.90;;;;;;5022060;28;20030;-70
2022/05/11 06:26:16;;;;;;;16.83;2.78;;;13.20;99.90;;;;;;5022328;28;20034;-71
2022/05/11 06:28:43;;;;;;;19.10;3.25;;;13.20;99.90;;;;;;5021749;28;20033;-70
2022/05/11 06:31:10;;;;;;;19.35;3.83;;;13.20;99.90;;;;;;5023096;28;20037;-71
2022/05/11 06:33:36;;;;;;;19.45;3.17;;;13.20;99.90;;;;;;5021447;28;20026;-70
2022/05/11 06:36:04;;;;;;;15.88;3.50;;;13.20;99.90;;;;;;5022760;28;20038;-70
2022/05/11 06:38:29;;;;;;;24.42;4.00;;;13.20;99.90;;;;;;5022203;28;20026;-69
2022/05/11 06:40:55;;;;;;;21.60;4.13;;;13.30;99.90;;;;;;5023069;28;20049;-69
2022/05/11 06:43:21;;;;;;;21.02;3.95;;;13.30;99.90;;;;;;5023053;28;20029;-70
2022/05/11 06:45:47;;;;;;;22.95;3.85;;;13.40;99.90;;;;;;5023398;28;20085;-72
2022/05/11 06:48:14;;;;;;;20.58;2.97;;;13.30;99.90;;;;;;5022904;28;20317;-71
2022/05/11 06:50:41;;;;;;;25.50;4.80;;;13.30;99.90;;;;;;5023158;28;20014;-70
2022/05/11 06:53:10;;;;;;;16.80;3.28;;;13.30;99.90;;;;;;5025945;28;20081;-70
2022/05/11 07:01:12;;;;;;;22.27;2.85;;;13.50;99.90;;;;;;5012256;28;20317;-69
2022/05/11 07:03:38;;;;;;;23.35;3.63;;;13.70;99.90;;;;;;5026717;28;20056;-69
2022/05/11 07:06:05;;;;;;;42.20;5.93;;;13.80;99.90;;;;;;5019418;28;20033;-71
2022/05/11 07:08:37;;;;;;;34.42;4.80;;;13.70;99.90;;;;;;5025143;28;20029;-71
2022/05/11 07:13:49;;;;;;;22.13;3.60;;;13.70;99.90;;;;;;5025212;28;20383;-69
2022/05/11 07:16:15;;;;;;;28.35;4.75;;;13.80;99.90;;;;;;5008549;28;20029;-71
2022/05/11 07:18:41;;;;;;;19.13;3.60;;;13.90;99.90;;;;;;5008165;28;20233;-69
2022/05/11 07:21:07;;;;;;;20.75;3.45;;;13.80;99.90;;;;;;5024778;28;20032;-73
2022/05/11 07:23:33;;;;;;;18.75;3.42;;;13.90;99.90;;;;;;5006521;28;20096;-72
2022/05/11 07:26:00;;;;;;;19.40;3.13;;;14.00;99.90;;;;;;5024320;28;20213;-70
2022/05/11 07:28:27;;;;;;;17.75;3.15;;;14.00;99.90;;;;;;5024480;28;20216;-73
2022/05/11 07:30:54;;;;;;;25.70;3.28;;;14.00;99.90;;;;;;5025453;28;20052;-73
2022/05/11 07:33:19;;;;;;;26.17;3.38;;;14.00;99.90;;;;;;5008219;28;20048;-74
2022/05/11 07:35:45;;;;;;;17.10;3.30;;;14.00;99.90;;;;;;5024635;28;20312;-72
2022/05/11 07:38:17;;;;;;;21.73;2.88;;;14.00;99.90;;;;;;5025079;28;20128;-73
2022/05/11 07:40:43;;;;;;;;;;;14.00;99.90;;;;;;5025960;28;20290;-70
2022/05/11 07:43:10;;;;;;;20.08;3.25;;;14.00;99.90;;;;;;5024519;28;20207;-70
2022/05/11 07:45:38;;;;;;;19.45;3.13;;;14.00;99.90;;;;;;5023465;28;20022;-71
2022/05/11 07:48:04;;;;;;;20.70;3.10;;;13.90;99.90;;;;;;5024991;28;20066;-71
2022/05/11 07:50:32;;;;;;;22.85;3.80;;;13.90;99.90;;;;;;5024233;28;20040;-73
2022/05/11 07:52:58;;;;;;;26.05;4.50;;;13.90;99.90;;;;;;5025337;28;20025;-72
2022/05/11 07:55:25;;;;;;;20.98;4.32;;;14.00;99.90;;;;;;5007388;28;20058;-69
2022/05/11 08:00:37;;;;;;;20.30;3.72;;;14.10;99.90;;;;;;5015719;28;20037;-70
2022/05/11 08:03:04;;;;;;;17.38;3.28;;;14.10;99.90;;;;;;5016851;28;20049;-69
2022/05/11 08:05:32;;;;;;;13.48;2.88;;;14.00;99.90;;;;;;5029531;28;20033;-69
2022/05/11 08:08:01;;;;;;;21.98;4.00;;;14.00;99.90;;;;;;5023050;28;20263;-70
2022/05/11 08:10:32;;;;;;;15.98;3.10;;;14.00;99.90;;;;;;5022076;28;20244;-73
2022/05/11 08:12:59;;;;;;;17.45;3.38;;;14.00;99.90;;;;;;5024084;28;20029;-69
2022/05/11 08:15:27;;;;;;;20.05;3.17;;;14.00;99.90;;;;;;5024409;28;20048;-72
2022/05/11 08:17:53;;;;;;;12.32;2.65;;;14.00;99.90;;;;;;5024407;28;20321;-72
2022/05/11 08:20:23;;;;;;;15.15;2.92;;;13.90;99.90;;;;;;5023730;28;20041;-71
2022/05/11 08:22:51;;;;;;;18.23;3.65;;;13.90;99.90;;;;;;5007330;28;20049;-73
2022/05/11 08:25:20;;;;;;;20.65;3.25;;;13.80;99.90;;;;;;5019124;28;20040;-72
2022/05/11 08:27:47;;;;;;;17.05;3.25;;;13.70;99.90;;;;;;5007550;28;20030;-72
2022/05/11 08:35:49;;;;;;;21.90;3.60;;;13.90;99.90;;;;;;5015042;28;20030;-70
2022/05/11 08:38:16;;;;;;;19.85;3.60;;;14.00;99.90;;;;;;5005563;28;20038;-71
2022/05/11 08:41:04;;;;;;;22.60;3.72;;;14.00;99.90;;;;;;5004408;28;20022;-70
2022/05/11 08:43:32;;;;;;;15.43;3.20;;;14.10;99.90;;;;;;5017961;28;20053;-69
2022/05/11 08:46:38;;;;;;;20.38;3.13;;;14.20;99.90;;;;;;5023407;28;20352;-72
2022/05/11 08:49:12;;;;;;;18.92;3.42;;;14.20;99.90;;;;;;5009827;28;20028;-72
2022/05/11 08:51:45;;;;;;;17.35;3.10;;;14.30;99.90;;;;;;5023507;28;20025;-72
2022/05/11 08:54:34;;;;;;;18.15;3.78;;;14.20;99.90;;;;;;5023258;28;20376;-71
2022/05/11 08:57:05;;;;;;;22.33;4.35;;;14.30;99.90;;;;;;5024732;28;20077;-73
2022/05/11 08:59:32;;;;;;;14.48;3.67;;;14.40;99.90;;;;;;5023013;28;20324;-70
2022/05/11 09:02:20;;;;;;;16.50;3.03;;;14.40;99.90;;;;;;5024596;28;20033;-72
2022/05/11 09:04:49;;;;;;;19.15;3.13;;;14.50;99.90;;;;;;5019744;28;20065;-69
2022/05/11 09:07:16;;;;;;;18.30;3.38;;;14.50;99.90;;;;;;4997511;28;20388;-70
2022/05/11 09:09:41;;;;;;;22.02;4.03;;;14.40;99.90;;;;;;4990502;28;20104;-72
2022/05/11 09:12:10;;;;;;;22.50;4.05;;;14.50;99.90;;;;;;5023272;28;20022;-72
2022/05/11 09:14:57;;;;;;;15.63;3.85;;;14.50;99.90;;;;;;5023657;28;20056;-70
2022/05/11 09:17:28;;;;;;;24.00;3.58;;;14.40;99.90;;;;;;5024131;28;20036;-71
2022/05/11 09:20:01;;;;;;;12.90;3.95;;;14.60;99.90;;;;;;5023865;28;20032;-70
2022/05/11 09:22:27;;;;;;;18.70;3.75;;;14.60;99.90;;;;;;5006624;28;20255;-72
2022/05/11 09:24:56;;;;;;;18.67;3.35;;;14.70;99.90;;;;;;5006452;28;20026;-71
2022/05/11 09:27:27;;;;;;;20.58;3.80;;;14.70;99.90;;;;;;5018468;28;20045;-74
2022/05/11 09:30:02;;;;;;;14.45;3.13;;;14.80;99.90;;;;;;5007525;28;20068;-71
2022/05/11 09:32:37;;;;;;;17.85;4.53;;;14.80;99.90;;;;;;5022494;28;20037;-70
2022/05/11 09:35:25;;;;;;;16.63;4.05;;;14.90;99.90;;;;;;5006706;28;20294;-71
2022/05/11 09:38:02;;;;;;;21.25;3.67;;;15.00;99.90;;;;;;5022406;28;20084;-73
2022/05/11 09:40:30;;;;;;;13.35;3.33;;;15.00;99.90;;;;;;5023759;28;20048;-72
2022/05/11 09:43:00;;;;;;;16.58;2.80;;;15.00;99.90;;;;;;5022170;28;20359;-73
2022/05/11 09:45:47;;;;;;;16.10;3.20;;;15.00;99.90;;;;;;5021927;28;20347;-73
2022/05/11 09:48:24;;;;;;;14.10;3.53;;;15.00;99.90;;;;;;5021755;28;20293;-71
2022/05/11 09:50:53;;;;;;;11.25;2.70;;;15.10;99.90;;;;;;5002775;28;20034;-72
2022/05/11 09:53:33;;;;;;;10.00;2.70;;;15.20;99.90;;;;;;4990855;28;20036;-71
2022/05/11 09:56:21;;;;;;;13.65;2.75;;;15.20;99.90;;;;;;5022073;28;20117;-70
2022/05/11 09:58:47;;;;;;;10.68;2.58;;;15.20;99.90;;;;;;5002408;28;20218;-71
2022/05/11 10:01:22;;;;;;;10.73;2.53;;;15.20;99.90;;;;;;5011403;28;20058;-72
2022/05/11 10:03:54;;;;;;;14.95;2.85;;;15.20;99.90;;;;;;4986452;28;20029;-72
2022/05/11 10:06:21;;;;;;;13.60;2.72;;;15.20;99.90;;;;;;5024457;28;20026;-70
2022/05/11 10:08:50;;;;;;;11.23;3.28;;;15.10;99.90;;;;;;5022058;28;20300;-72
2022/05/11 10:11:22;;;;;;;16.77;2.83;;;15.20;99.90;;;;;;5021611;28;20066;-72
2022/05/11 10:13:58;;;;;;;12.40;2.65;;;15.30;99.90;;;;;;5021490;28;20021;-71
2022/05/11 10:23:00;;;;;;;11.07;2.45;;;15.40;99.90;;;;;;5021310;28;20313;-71
2022/05/11 10:25:39;;;;;;;9.02;2.53;;;15.50;99.90;;;;;;5018225;28;20328;-72
2022/05/11 10:28:31;;;;;;;12.63;2.47;;;15.50;99.90;;;;;;5019762;28;20194;-73
2022/05/11 10:31:07;;;;;;;11.57;2.50;;;15.70;99.90;;;;;;5006717;28;20198;-73
2022/05/11 10:34:00;;;;;;;10.27;2.15;;;15.60;99.90;;;;;;5003558;28;20029;-70
2022/05/11 10:36:41;;;;;;;6.68;2.03;;;15.60;99.90;;;;;;5007395;28;20057;-70
2022/05/11 10:39:36;;;;;;;11.50;2.43;;;15.60;99.90;;;;;;5005509;28;20034;-73
2022/05/11 10:42:13;;;;;;;10.93;2.33;;;15.60;99.90;;;;;;4980267;28;20033;-71
2022/05/11 10:45:06;;;;;;;11.35;2.17;;;15.70;99.90;;;;;;4998571;28;20065;-73
2022/05/11 10:47:51;;;;;;;7.72;2.05;;;15.60;99.90;;;;;;5016430;28;20025;-72
2022/05/11 10:50:40;;;;;;;10.07;1.70;;;15.60;99.90;;;;;;5019086;28;20064;-73
2022/05/11 10:53:38;;;;;;;3.95;1.45;;;15.60;99.90;;;;;;5021544;28;20030;-70
2022/05/11 10:56:39;;;;;;;6.30;1.67;;;15.60;99.90;;;;;;5007693;28;20236;-74
2022/05/11 10:59:44;;;;;;;8.32;2.15;;;15.40;99.90;;;;;;5006989;28;20044;-74
2022/05/11 11:02:41;;;;;;;6.72;1.95;;;15.40;99.90;;;;;;5001357;28;20018;-71
2022/05/11 11:05:44;;;;;;;3.08;1.60;;;15.40;99.90;;;;;;5023432;28;20053;-71
2022/05/11 11:08:24;;;;;;;4.97;1.70;;;15.40;99.90;;;;;;5023982;28;20036;-71
2022/05/11 11:11:19;;;;;;;6.55;1.88;;;15.60;99.90;;;;;;5002188;28;20027;-70
2022/05/11 11:14:08;;;;;;;6.93;2.35;;;15.60;99.90;;;;;;4997938;28;20068;-70
2022/05/11 11:16:37;;;;;;;8.38;2.17;;;15.70;99.90;;;;;;5001476;28;20046;-69
2022/05/11 11:19:05;;;;;;;6.90;1.85;;;15.80;99.90;;;;;;5001839;28;20034;-76
2022/05/11 11:21:32;;;;;;;5.57;2.10;;;15.70;99.90;;;;;;5002228;28;20022;-68
2022/05/11 11:24:27;;;;;;;4.53;1.50;;;15.60;99.90;;;;;;5016984;28;20021;-71
2022/05/11 11:27:06;;;;;;;3.22;1.55;;;15.50;99.90;;;;;;5021141;28;20032;-70
2022/05/11 11:29:39;;;;;;;5.30;1.92;;;15.40;99.90;;;;;;5019567;28;20026;-69
2022/05/11 11:32:14;;;;;;;3.22;1.30;;;15.60;99.90;;;;;;5021531;28;20029;-71
2022/05/11 11:34:48;;;;;;;1.55;0.98;;;15.60;99.90;;;;;;5021961;28;20026;-71
2022/05/11 11:37:36;;;;;;;5.80;1.08;;;15.40;99.90;;;;;;5022050;28;20313;-70
2022/05/11 11:40:22;;;;;;;7.07;1.20;;;15.40;99.90;;;;;;5024456;28;20033;-69
2022/05/11 11:42:48;;;;;;;3.85;0.93;;;15.30;99.90;;;;;;5022983;28;20022;-70
2022/05/11 11:45:53;;;;;;;4.18;0.90;;;15.40;99.90;;;;;;5024943;28;20045;-70
2022/05/11 11:48:25;;;;;;;7.47;1.30;;;15.50;99.90;;;;;;5022038;28;20018;-70
2022/05/11 11:51:00;;;;;;;8.15;1.15;;;15.60;99.90;;;;;;5032870;28;20033;-70
2022/05/11 11:53:50;;;;;;;2.83;0.80;;;15.70;99.90;;;;;;5024652;28;20313;-69
2022/05/11 11:56:34;;;;;;;3.33;1.00;;;16.00;99.90;;;;;;5023031;28;20058;-70
2022/05/11 11:59:04;;;;;;;3.22;0.68;;;16.20;99.90;;;;;;5021102;28;20025;-69
2022/05/11 12:01:33;;;;;;;5.15;1.02;;;16.30;99.90;;;;;;4998216;28;20022;-71
2022/05/11 12:04:05;;;;;;;2.60;0.88;;;16.50;99.90;;;;;;5024763;28;20308;-71
2022/05/11 12:15:12;;;;;;;1.60;0.70;;;17.00;99.90;;;;;;5005176;28;20022;-70
2022/05/11 12:17:40;;;;;;;2.20;0.60;;;17.10;99.90;;;;;;4988323;28;20034;-70
2022/05/11 12:20:17;;;;;;;11.65;0.88;;;17.10;99.90;;;;;;5004587;28;20027;-71
2022/05/11 12:22:50;;;;;;;3.28;0.80;;;16.70;99.90;;;;;;5004159;28;20018;-71
2022/05/11 12:25:36;;;;;;;2.22;0.75;;;16.70;99.90;;;;;;5016183;28;20048;-70
2022/05/11 12:28:20;;;;;;;2.85;0.55;;;16.70;99.90;;;;;;5023964;28;20029;-69
2022/05/11 12:30:47;;;;;;;1.60;0.60;;;16.50;99.90;;;;;;5021724;28;20309;-69
2022/05/11 12:33:27;;;;;;;5.63;1.00;;;16.40;99.90;;;;;;5007384;28;20333;-73
2022/05/11 12:35:53;;;;;;;3.35;0.70;;;16.30;99.90;;;;;;5002986;28;20018;-72
2022/05/11 12:38:37;;;;;;;4.80;0.88;;;16.40;99.90;;;;;;5004533;28;20034;-69
2022/05/11 12:41:10;;;;;;;3.78;0.80;;;16.50;99.90;;;;;;5004002;28;20369;-70
2022/05/11 12:43:39;;;;;;;9.27;1.00;;;16.50;99.90;;;;;;5004536;28;20091;-69
2022/05/11 12:46:08;;;;;;;6.82;1.20;;;16.70;99.90;;;;;;5006016;28;20026;-70
2022/05/11 12:48:38;;;;;;;9.23;1.38;;;17.00;99.90;;;;;;5024365;28;20046;-70
2022/05/11 12:51:07;;;;;;;7.43;1.23;;;17.10;99.90;;;;;;5005577;28;20025;-70
2022/05/11 12:53:37;;;;;;;5.55;1.10;;;17.00;99.90;;;;;;5022808;28;20026;-70
2022/05/11 12:56:27;;;;;;;5.60;1.10;;;16.60;99.90;;;;;;5021865;28;20363;-72
2022/05/11 12:58:58;;;;;;;8.68;1.40;;;16.40;99.90;;;;;;5018853;28;20561;-72
2022/05/11 13:01:28;;;;;;;8.15;1.10;;;16.40;99.90;;;;;;5024617;28;20021;-69
2022/05/11 13:03:58;;;;;;;14.23;1.67;;;16.40;99.90;;;;;;5003231;28;20034;-70
2022/05/11 13:06:47;;;;;;;12.15;1.70;;;16.50;99.90;;;;;;5032769;28;20020;-71
2022/05/11 13:09:34;;;;;;;2.60;1.02;;;16.60;99.90;;;;;;4998510;28;20026;-71
2022/05/11 13:12:02;;;;;;;9.77;1.67;;;16.50;99.90;;;;;;4987579;28;20049;-71
2022/05/11 13:14:35;;;;;;;5.38;1.02;;;16.50;99.90;;;;;;5007771;28;20260;-71
2022/05/11 13:17:04;;;;;;;5.53;0.80;;;16.60;99.90;;;;;;5024525;28;20093;-71
2022/05/11 13:19:32;;;;;;;5.30;1.50;;;16.90;99.90;;;;;;5022353;28;20327;-71
2022/05/11 13:22:01;;;;;;;7.88;1.02;;;17.20;99.90;;;;;;5022663;28;20030;-73
2022/05/11 13:24:49;;;;;;;6.97;1.23;;;17.20;98.40;;;;;;5002925;28;20361;-72
2022/05/11 13:27:38;;;;;;;4.60;1.10;;;17.30;99.30;;;;;;5016590;28;20205;-70
2022/05/11 13:30:32;;;;;;;6.78;1.15;;;17.40;97.80;;;;;;5021782;28;20022;-74
2022/05/11 13:33:01;;;;;;;5.78;1.10;;;17.00;98.90;;;;;;5022562;28;20033;-69
2022/05/11 13:35:32;;;;;;;4.93;1.00;;;17.00;98.90;;;;;;5005866;28;20088;-69
2022/05/11 13:38:13;;;;;;;;;;;17.10;98.80;;;;;;5023809;28;20014;-72
2022/05/11 13:41:00;;;;;;;8.25;1.70;;;17.10;99.50;;;;;;5021916;28;20196;-70
2022/05/11 13:43:47;;;;;;;11.13;2.20;;;17.00;99.20;;;;;;5022147;28;20326;-69